sensor_id;sensor_type;location;lat;lon;timestamp;P1;durP1;ratioP1;P2;durP2;ratioP2
3547;SDS011;1788;49.400;11.092;2023-04-24T00:01:31;1.90;;;1.80;;
3547;SDS011;1788;49.400;11.092;2023-04-24T00:03:57;1.67;;;1.57;;
3547;SDS011;1788;49.400;11.092;2023-04-24T00:06:26;2.63;;;1.87;;
3547;SDS011;1788;49.400;11.092;2023-04-24T00:08:52;1.90;;;1.80;;
3547;SDS011;1788;49.400;11.092;2023-04-24T00:11:19;1.80;;;1.70;;
3547;SDS011;1788;49.400;11.092;2023-04-24T00:13:45;1.63;;;1.53;;
3547;SDS011;1788;49.400;11.092;2023-04-24T00:16:12;2.93;;;1.73;;
3547;SDS011;1788;49.400;11.092;2023-04-24T00:18:39;2.20;;;2.07;;
3547;SDS011;1788;49.400;11.092;2023-04-24T00:21:06;2.87;;;2.00;;
3547;SDS011;1788;49.400;11.092;2023-04-24T00:23:33;3.20;;;2.13;;
3547;SDS011;1788;49.400;11.092;2023-04-24T00:26:00;2.13;;;1.80;;
3547;SDS011;1788;49.400;11.092;2023-04-24T00:28:26;4.07;;;2.00;;
3547;SDS011;1788;49.400;11.092;2023-04-24T00:30:53;2.20;;;2.07;;
3547;SDS011;1788;49.400;11.092;2023-04-24T00:33:20;2.07;;;1.90;;
3547;SDS011;1788;49.400;11.092;2023-04-24T00:35:47;4.03;;;2.00;;
3547;SDS011;1788;49.400;11.092;2023-04-24T00:38:14;1.77;;;1.60;;
3547;SDS011;1788;49.400;11.092;2023-04-24T00:40:41;2.17;;;1.93;;
3547;SDS011;1788;49.400;11.092;2023-04-24T00:43:08;2.27;;;1.87;;
3547;SDS011;1788;49.400;11.092;2023-04-24T00:45:34;2.00;;;1.53;;
3547;SDS011;1788;49.400;11.092;2023-04-24T00:48:01;1.77;;;1.67;;
3547;SDS011;1788;49.400;11.092;2023-04-24T00:50:28;1.90;;;1.87;;
3547;SDS011;1788;49.400;11.092;2023-04-24T00:52:55;2.47;;;1.97;;
3547;SDS011;1788;49.400;11.092;2023-04-24T00:55:21;2.30;;;2.13;;
3547;SDS011;1788;49.400;11.092;2023-04-24T00:57:49;2.30;;;2.10;;
3547;SDS011;1788;49.400;11.092;2023-04-24T01:00:15;2.20;;;1.67;;
3547;SDS011;1788;49.400;11.092;2023-04-24T01:02:43;3.07;;;2.00;;
3547;SDS011;1788;49.400;11.092;2023-04-24T01:05:09;1.80;;;1.70;;
3547;SDS011;1788;49.400;11.092;2023-04-24T01:07:35;1.87;;;1.77;;
3547;SDS011;1788;49.400;11.092;2023-04-24T01:10:02;4.80;;;1.90;;
3547;SDS011;1788;49.400;11.092;2023-04-24T01:12:29;2.87;;;1.80;;
3547;SDS011;1788;49.400;11.092;2023-04-24T01:14:55;1.87;;;1.70;;
3547;SDS011;1788;49.400;11.092;2023-04-24T01:17:23;2.00;;;1.80;;
3547;SDS011;1788;49.400;11.092;2023-04-24T01:19:49;2.30;;;2.10;;
3547;SDS011;1788;49.400;11.092;2023-04-24T01:22:17;3.60;;;1.83;;
3547;SDS011;1788;49.400;11.092;2023-04-24T01:24:43;2.13;;;1.50;;
3547;SDS011;1788;49.400;11.092;2023-04-24T01:27:10;1.47;;;1.40;;
3547;SDS011;1788;49.400;11.092;2023-04-24T01:29:37;2.47;;;2.20;;
3547;SDS011;1788;49.400;11.092;2023-04-24T01:32:03;3.50;;;2.20;;
3547;SDS011;1788;49.400;11.092;2023-04-24T01:34:31;2.20;;;1.70;;
3547;SDS011;1788;49.400;11.092;2023-04-24T01:36:57;2.40;;;1.73;;
3547;SDS011;1788;49.400;11.092;2023-04-24T01:39:24;2.50;;;1.87;;
3547;SDS011;1788;49.400;11.092;2023-04-24T01:41:51;1.70;;;1.40;;
3547;SDS011;1788;49.400;11.092;2023-04-24T01:44:18;2.63;;;1.63;;
3547;SDS011;1788;49.400;11.092;2023-04-24T01:46:44;1.97;;;1.47;;
3547;SDS011;1788;49.400;11.092;2023-04-24T01:49:11;1.60;;;1.50;;
3547;SDS011;1788;49.400;11.092;2023-04-24T01:51:38;1.70;;;1.60;;
3547;SDS011;1788;49.400;11.092;2023-04-24T01:54:05;1.47;;;1.33;;
3547;SDS011;1788;49.400;11.092;2023-04-24T01:58:59;2.63;;;1.70;;
3547;SDS011;1788;49.400;11.092;2023-04-24T02:01:29;2.03;;;1.50;;
3547;SDS011;1788;49.400;11.092;2023-04-24T02:03:54;1.60;;;1.50;;
3547;SDS011;1788;49.400;11.092;2023-04-24T02:06:20;1.63;;;1.53;;
3547;SDS011;1788;49.400;11.092;2023-04-24T02:08:47;3.70;;;1.93;;
3547;SDS011;1788;49.400;11.092;2023-04-24T02:11:14;2.30;;;1.73;;
3547;SDS011;1788;49.400;11.092;2023-04-24T02:13:41;2.47;;;1.83;;
3547;SDS011;1788;49.400;11.092;2023-04-24T02:16:08;1.77;;;1.73;;
3547;SDS011;1788;49.400;11.092;2023-04-24T02:18:35;1.70;;;1.60;;
3547;SDS011;1788;49.400;11.092;2023-04-24T02:21:02;2.33;;;1.60;;
3547;SDS011;1788;49.400;11.092;2023-04-24T02:23:28;1.50;;;1.40;;
3547;SDS011;1788;49.400;11.092;2023-04-24T02:25:55;1.93;;;1.80;;
3547;SDS011;1788;49.400;11.092;2023-04-24T02:28:22;1.80;;;1.70;;
3547;SDS011;1788;49.400;11.092;2023-04-24T02:30:50;1.70;;;1.60;;
3547;SDS011;1788;49.400;11.092;2023-04-24T02:33:16;2.73;;;2.07;;
3547;SDS011;1788;49.400;11.092;2023-04-24T02:35:43;1.63;;;1.57;;
3547;SDS011;1788;49.400;11.092;2023-04-24T02:38:09;2.10;;;1.93;;
3547;SDS011;1788;49.400;11.092;2023-04-24T02:40:36;2.37;;;2.13;;
3547;SDS011;1788;49.400;11.092;2023-04-24T02:43:03;1.83;;;1.73;;
3547;SDS011;1788;49.400;11.092;2023-04-24T02:45:30;1.87;;;1.77;;
3547;SDS011;1788;49.400;11.092;2023-04-24T02:47:57;2.67;;;1.87;;
3547;SDS011;1788;49.400;11.092;2023-04-24T02:50:24;1.60;;;1.50;;
3547;SDS011;1788;49.400;11.092;2023-04-24T02:52:50;1.63;;;1.53;;
3547;SDS011;1788;49.400;11.092;2023-04-24T02:55:17;3.47;;;1.93;;
3547;SDS011;1788;49.400;11.092;2023-04-24T02:57:45;2.83;;;1.87;;
3547;SDS011;1788;49.400;11.092;2023-04-24T03:00:12;1.77;;;1.67;;
3547;SDS011;1788;49.400;11.092;2023-04-24T03:02:39;1.83;;;1.73;;
3547;SDS011;1788;49.400;11.092;2023-04-24T03:07:33;2.23;;;1.80;;
3547;SDS011;1788;49.400;11.092;2023-04-24T03:10:00;1.77;;;1.67;;
3547;SDS011;1788;49.400;11.092;2023-04-24T03:12:26;2.53;;;1.90;;
3547;SDS011;1788;49.400;11.092;2023-04-24T03:14:54;2.20;;;2.00;;
3547;SDS011;1788;49.400;11.092;2023-04-24T03:17:20;2.87;;;1.90;;
3547;SDS011;1788;49.400;11.092;2023-04-24T03:19:47;2.30;;;1.97;;
3547;SDS011;1788;49.400;11.092;2023-04-24T03:22:13;1.80;;;1.73;;
3547;SDS011;1788;49.400;11.092;2023-04-24T03:24:40;1.83;;;1.73;;
3547;SDS011;1788;49.400;11.092;2023-04-24T03:27:07;1.57;;;1.50;;
3547;SDS011;1788;49.400;11.092;2023-04-24T03:29:34;4.13;;;2.30;;
3547;SDS011;1788;49.400;11.092;2023-04-24T03:32:01;1.83;;;1.70;;
3547;SDS011;1788;49.400;11.092;2023-04-24T03:34:27;1.87;;;1.77;;
3547;SDS011;1788;49.400;11.092;2023-04-24T03:36:54;2.97;;;2.30;;
3547;SDS011;1788;49.400;11.092;2023-04-24T03:39:21;2.27;;;2.03;;
3547;SDS011;1788;49.400;11.092;2023-04-24T03:41:47;2.00;;;1.90;;
3547;SDS011;1788;49.400;11.092;2023-04-24T03:44:14;1.97;;;1.87;;
3547;SDS011;1788;49.400;11.092;2023-04-24T03:46:40;2.23;;;2.07;;
3547;SDS011;1788;49.400;11.092;2023-04-24T03:49:08;2.87;;;2.30;;
3547;SDS011;1788;49.400;11.092;2023-04-24T03:51:34;1.80;;;1.70;;
3547;SDS011;1788;49.400;11.092;2023-04-24T03:54:01;1.80;;;1.70;;
3547;SDS011;1788;49.400;11.092;2023-04-24T03:56:28;2.10;;;1.77;;
3547;SDS011;1788;49.400;11.092;2023-04-24T03:58:54;2.00;;;1.90;;
3547;SDS011;1788;49.400;11.092;2023-04-24T04:01:21;1.67;;;1.63;;
3547;SDS011;1788;49.400;11.092;2023-04-24T04:03:47;2.33;;;1.90;;
3547;SDS011;1788;49.400;11.092;2023-04-24T04:06:14;1.63;;;1.60;;
3547;SDS011;1788;49.400;11.092;2023-04-24T04:08:41;2.07;;;1.97;;
3547;SDS011;1788;49.400;11.092;2023-04-24T04:11:07;2.37;;;2.17;;
3547;SDS011;1788;49.400;11.092;2023-04-24T04:13:36;12.77;;;7.57;;
3547;SDS011;1788;49.400;11.092;2023-04-24T04:16:03;12.03;;;7.27;;
3547;SDS011;1788;49.400;11.092;2023-04-24T04:18:30;3.00;;;2.80;;
3547;SDS011;1788;49.400;11.092;2023-04-24T04:20:57;2.80;;;2.60;;
3547;SDS011;1788;49.400;11.092;2023-04-24T04:23:24;3.43;;;2.80;;
3547;SDS011;1788;49.400;11.092;2023-04-24T04:25:50;2.77;;;2.37;;
3547;SDS011;1788;49.400;11.092;2023-04-24T04:28:17;2.67;;;2.47;;
3547;SDS011;1788;49.400;11.092;2023-04-24T04:30:43;3.33;;;2.80;;
3547;SDS011;1788;49.400;11.092;2023-04-24T04:33:11;2.27;;;2.07;;
3547;SDS011;1788;49.400;11.092;2023-04-24T04:35:37;2.37;;;2.13;;
3547;SDS011;1788;49.400;11.092;2023-04-24T04:38:04;5.33;;;2.97;;
3547;SDS011;1788;49.400;11.092;2023-04-24T04:42:58;3.43;;;2.93;;
3547;SDS011;1788;49.400;11.092;2023-04-24T04:45:24;4.27;;;2.53;;
3547;SDS011;1788;49.400;11.092;2023-04-24T04:47:51;3.57;;;2.73;;
3547;SDS011;1788;49.400;11.092;2023-04-24T04:50:17;2.23;;;1.93;;
3547;SDS011;1788;49.400;11.092;2023-04-24T04:52:44;4.17;;;3.20;;
3547;SDS011;1788;49.400;11.092;2023-04-24T04:55:11;2.67;;;2.40;;
3547;SDS011;1788;49.400;11.092;2023-04-24T04:57:37;4.53;;;3.43;;
3547;SDS011;1788;49.400;11.092;2023-04-24T05:00:05;3.40;;;3.23;;
3547;SDS011;1788;49.400;11.092;2023-04-24T05:02:31;3.70;;;3.30;;
3547;SDS011;1788;49.400;11.092;2023-04-24T05:04:59;3.40;;;2.80;;
3547;SDS011;1788;49.400;11.092;2023-04-24T05:07:25;2.93;;;2.80;;
3547;SDS011;1788;49.400;11.092;2023-04-24T05:09:52;4.40;;;3.47;;
3547;SDS011;1788;49.400;11.092;2023-04-24T05:12:18;3.77;;;3.20;;
3547;SDS011;1788;49.400;11.092;2023-04-24T05:14:45;4.93;;;2.90;;
3547;SDS011;1788;49.400;11.092;2023-04-24T05:17:12;4.37;;;3.93;;
3547;SDS011;1788;49.400;11.092;2023-04-24T05:19:38;2.67;;;2.47;;
3547;SDS011;1788;49.400;11.092;2023-04-24T05:22:05;3.50;;;3.30;;
3547;SDS011;1788;49.400;11.092;2023-04-24T05:26:58;4.23;;;2.97;;
3547;SDS011;1788;49.400;11.092;2023-04-24T05:29:25;4.03;;;3.10;;
3547;SDS011;1788;49.400;11.092;2023-04-24T05:31:51;4.93;;;2.97;;
3547;SDS011;1788;49.400;11.092;2023-04-24T05:34:18;3.57;;;2.77;;
3547;SDS011;1788;49.400;11.092;2023-04-24T05:36:45;3.23;;;2.93;;
3547;SDS011;1788;49.400;11.092;2023-04-24T05:39:11;3.80;;;3.37;;
3547;SDS011;1788;49.400;11.092;2023-04-24T05:41:38;4.90;;;2.87;;
3547;SDS011;1788;49.400;11.092;2023-04-24T05:44:05;3.97;;;3.00;;
3547;SDS011;1788;49.400;11.092;2023-04-24T05:46:32;4.70;;;3.23;;
3547;SDS011;1788;49.400;11.092;2023-04-24T05:48:58;3.60;;;2.93;;
3547;SDS011;1788;49.400;11.092;2023-04-24T05:51:25;2.83;;;2.67;;
3547;SDS011;1788;49.400;11.092;2023-04-24T05:53:52;4.77;;;3.20;;
3547;SDS011;1788;49.400;11.092;2023-04-24T05:56:18;3.53;;;2.83;;
3547;SDS011;1788;49.400;11.092;2023-04-24T05:58:45;5.07;;;3.40;;
3547;SDS011;1788;49.400;11.092;2023-04-24T06:01:12;2.70;;;2.50;;
3547;SDS011;1788;49.400;11.092;2023-04-24T06:03:38;3.70;;;3.10;;
3547;SDS011;1788;49.400;11.092;2023-04-24T06:06:05;2.97;;;2.77;;
3547;SDS011;1788;49.400;11.092;2023-04-24T06:08:31;3.47;;;3.07;;
3547;SDS011;1788;49.400;11.092;2023-04-24T06:10:58;3.13;;;2.87;;
3547;SDS011;1788;49.400;11.092;2023-04-24T06:13:25;3.57;;;2.87;;
3547;SDS011;1788;49.400;11.092;2023-04-24T06:15:52;3.67;;;3.00;;
3547;SDS011;1788;49.400;11.092;2023-04-24T06:18:18;3.63;;;3.10;;
3547;SDS011;1788;49.400;11.092;2023-04-24T06:20:45;3.50;;;2.70;;
3547;SDS011;1788;49.400;11.092;2023-04-24T06:23:12;2.77;;;2.60;;
3547;SDS011;1788;49.400;11.092;2023-04-24T06:25:38;3.13;;;2.87;;
3547;SDS011;1788;49.400;11.092;2023-04-24T06:28:05;2.80;;;2.30;;
3547;SDS011;1788;49.400;11.092;2023-04-24T06:30:32;2.93;;;2.30;;
3547;SDS011;1788;49.400;11.092;2023-04-24T06:32:58;2.47;;;2.27;;
3547;SDS011;1788;49.400;11.092;2023-04-24T06:35:26;2.67;;;2.47;;
3547;SDS011;1788;49.400;11.092;2023-04-24T06:37:52;4.33;;;1.90;;
3547;SDS011;1788;49.400;11.092;2023-04-24T06:40:20;2.00;;;1.90;;
3547;SDS011;1788;49.400;11.092;2023-04-24T06:42:46;2.47;;;2.27;;
3547;SDS011;1788;49.400;11.092;2023-04-24T06:45:14;2.50;;;1.47;;
3547;SDS011;1788;49.400;11.092;2023-04-24T06:47:40;1.93;;;1.83;;
3547;SDS011;1788;49.400;11.092;2023-04-24T06:50:07;1.43;;;1.37;;
3547;SDS011;1788;49.400;11.092;2023-04-24T06:52:33;3.50;;;1.50;;
3547;SDS011;1788;49.400;11.092;2023-04-24T06:55:01;2.93;;;1.20;;
3547;SDS011;1788;49.400;11.092;2023-04-24T06:57:27;1.17;;;1.07;;
3547;SDS011;1788;49.400;11.092;2023-04-24T06:59:54;1.43;;;1.40;;
3547;SDS011;1788;49.400;11.092;2023-04-24T07:02:21;1.40;;;1.30;;
3547;SDS011;1788;49.400;11.092;2023-04-24T07:04:48;1.40;;;1.13;;
3547;SDS011;1788;49.400;11.092;2023-04-24T07:07:15;2.47;;;1.47;;
3547;SDS011;1788;49.400;11.092;2023-04-24T07:09:41;1.83;;;1.27;;
3547;SDS011;1788;49.400;11.092;2023-04-24T07:12:08;1.57;;;1.27;;
3547;SDS011;1788;49.400;11.092;2023-04-24T07:14:34;2.20;;;1.10;;
3547;SDS011;1788;49.400;11.092;2023-04-24T07:17:02;0.97;;;0.87;;
3547;SDS011;1788;49.400;11.092;2023-04-24T07:19:28;0.90;;;0.80;;
3547;SDS011;1788;49.400;11.092;2023-04-24T07:21:56;2.13;;;1.20;;
3547;SDS011;1788;49.400;11.092;2023-04-24T07:24:23;0.97;;;0.90;;
3547;SDS011;1788;49.400;11.092;2023-04-24T07:26:51;2.77;;;1.03;;
3547;SDS011;1788;49.400;11.092;2023-04-24T07:29:17;1.37;;;1.00;;
3547;SDS011;1788;49.400;11.092;2023-04-24T07:31:44;1.57;;;1.43;;
3547;SDS011;1788;49.400;11.092;2023-04-24T07:34:11;1.53;;;1.43;;
3547;SDS011;1788;49.400;11.092;2023-04-24T07:36:38;1.53;;;1.43;;
3547;SDS011;1788;49.400;11.092;2023-04-24T07:39:05;1.43;;;1.33;;
3547;SDS011;1788;49.400;11.092;2023-04-24T07:41:32;2.27;;;1.53;;
3547;SDS011;1788;49.400;11.092;2023-04-24T07:43:59;1.50;;;1.33;;
3547;SDS011;1788;49.400;11.092;2023-04-24T07:46:26;1.50;;;1.40;;
3547;SDS011;1788;49.400;11.092;2023-04-24T07:48:53;2.90;;;2.17;;
3547;SDS011;1788;49.400;11.092;2023-04-24T07:51:19;1.87;;;1.60;;
3547;SDS011;1788;49.400;11.092;2023-04-24T07:53:46;1.63;;;1.53;;
3547;SDS011;1788;49.400;11.092;2023-04-24T07:56:13;6.67;;;2.50;;
3547;SDS011;1788;49.400;11.092;2023-04-24T07:58:41;3.00;;;1.73;;
3547;SDS011;1788;49.400;11.092;2023-04-24T08:01:07;3.87;;;1.87;;
3547;SDS011;1788;49.400;11.092;2023-04-24T08:03:34;1.73;;;1.70;;
3547;SDS011;1788;49.400;11.092;2023-04-24T08:06:01;2.23;;;2.03;;
3547;SDS011;1788;49.400;11.092;2023-04-24T08:08:28;4.70;;;2.10;;
3547;SDS011;1788;49.400;11.092;2023-04-24T08:10:54;2.87;;;2.33;;
3547;SDS011;1788;49.400;11.092;2023-04-24T08:13:21;3.37;;;2.07;;
3547;SDS011;1788;49.400;11.092;2023-04-24T08:15:48;1.83;;;1.77;;
3547;SDS011;1788;49.400;11.092;2023-04-24T08:18:15;2.87;;;1.70;;
3547;SDS011;1788;49.400;11.092;2023-04-24T08:20:42;2.57;;;2.37;;
3547;SDS011;1788;49.400;11.092;2023-04-24T08:23:09;2.27;;;1.93;;
3547;SDS011;1788;49.400;11.092;2023-04-24T08:25:36;1.80;;;1.70;;
3547;SDS011;1788;49.400;11.092;2023-04-24T08:28:03;3.50;;;2.27;;
3547;SDS011;1788;49.400;11.092;2023-04-24T08:30:29;3.43;;;2.10;;
3547;SDS011;1788;49.400;11.092;2023-04-24T08:32:56;2.20;;;2.00;;
3547;SDS011;1788;49.400;11.092;2023-04-24T08:35:23;2.43;;;2.23;;
3547;SDS011;1788;49.400;11.092;2023-04-24T08:37:51;2.23;;;2.07;;
3547;SDS011;1788;49.400;11.092;2023-04-24T08:40:17;2.97;;;2.40;;
3547;SDS011;1788;49.400;11.092;2023-04-24T08:42:44;2.70;;;2.50;;
3547;SDS011;1788;49.400;11.092;2023-04-24T08:45:11;2.80;;;2.63;;
3547;SDS011;1788;49.400;11.092;2023-04-24T08:47:39;2.67;;;2.37;;
3547;SDS011;1788;49.400;11.092;2023-04-24T08:50:05;3.83;;;2.50;;
3547;SDS011;1788;49.400;11.092;2023-04-24T08:52:32;4.90;;;3.07;;
3547;SDS011;1788;49.400;11.092;2023-04-24T08:54:59;2.57;;;2.37;;
3547;SDS011;1788;49.400;11.092;2023-04-24T08:57:25;3.07;;;2.77;;
3547;SDS011;1788;49.400;11.092;2023-04-24T08:59:52;2.57;;;2.37;;
3547;SDS011;1788;49.400;11.092;2023-04-24T09:02:19;2.47;;;2.27;;
3547;SDS011;1788;49.400;11.092;2023-04-24T09:04:46;3.27;;;2.60;;
3547;SDS011;1788;49.400;11.092;2023-04-24T09:07:12;3.73;;;2.90;;
3547;SDS011;1788;49.400;11.092;2023-04-24T09:09:40;3.07;;;2.13;;
3547;SDS011;1788;49.400;11.092;2023-04-24T09:12:07;2.70;;;2.50;;
3547;SDS011;1788;49.400;11.092;2023-04-24T09:14:33;3.37;;;2.17;;
3547;SDS011;1788;49.400;11.092;2023-04-24T09:17:00;2.27;;;2.07;;
3547;SDS011;1788;49.400;11.092;2023-04-24T09:19:27;3.03;;;2.30;;
3547;SDS011;1788;49.400;11.092;2023-04-24T09:21:54;3.23;;;2.70;;
3547;SDS011;1788;49.400;11.092;2023-04-24T09:24:21;3.43;;;2.50;;
3547;SDS011;1788;49.400;11.092;2023-04-24T09:26:48;2.70;;;2.50;;
3547;SDS011;1788;49.400;11.092;2023-04-24T09:29:15;3.47;;;2.27;;
3547;SDS011;1788;49.400;11.092;2023-04-24T09:31:41;2.50;;;2.30;;
3547;SDS011;1788;49.400;11.092;2023-04-24T09:34:08;3.30;;;2.37;;
3547;SDS011;1788;49.400;11.092;2023-04-24T09:36:36;4.93;;;2.00;;
3547;SDS011;1788;49.400;11.092;2023-04-24T09:39:04;2.83;;;2.23;;
3547;SDS011;1788;49.400;11.092;2023-04-24T09:41:29;2.37;;;2.17;;
3547;SDS011;1788;49.400;11.092;2023-04-24T09:43:58;2.53;;;2.00;;
3547;SDS011;1788;49.400;11.092;2023-04-24T09:48:52;4.10;;;2.80;;
3547;SDS011;1788;49.400;11.092;2023-04-24T09:51:19;2.40;;;2.20;;
3547;SDS011;1788;49.400;11.092;2023-04-24T09:53:46;2.47;;;2.30;;
3547;SDS011;1788;49.400;11.092;2023-04-24T09:56:14;2.80;;;2.27;;
3547;SDS011;1788;49.400;11.092;2023-04-24T09:58:41;2.23;;;2.03;;
3547;SDS011;1788;49.400;11.092;2023-04-24T10:01:07;2.83;;;2.23;;
3547;SDS011;1788;49.400;11.092;2023-04-24T10:03:35;1.60;;;1.50;;
3547;SDS011;1788;49.400;11.092;2023-04-24T10:06:02;4.67;;;2.10;;
3547;SDS011;1788;49.400;11.092;2023-04-24T10:10:55;3.03;;;1.97;;
3547;SDS011;1788;49.400;11.092;2023-04-24T10:13:23;2.00;;;1.90;;
3547;SDS011;1788;49.400;11.092;2023-04-24T10:15:50;2.57;;;2.07;;
3547;SDS011;1788;49.400;11.092;2023-04-24T10:18:17;4.67;;;2.20;;
3547;SDS011;1788;49.400;11.092;2023-04-24T10:20:45;3.30;;;2.20;;
3547;SDS011;1788;49.400;11.092;2023-04-24T10:23:11;3.10;;;2.07;;
3547;SDS011;1788;49.400;11.092;2023-04-24T10:25:38;2.10;;;1.97;;
3547;SDS011;1788;49.400;11.092;2023-04-24T10:28:05;2.20;;;1.80;;
3547;SDS011;1788;49.400;11.092;2023-04-24T10:32:59;2.00;;;1.90;;
3547;SDS011;1788;49.400;11.092;2023-04-24T10:35:26;1.90;;;1.80;;
3547;SDS011;1788;49.400;11.092;2023-04-24T10:42:47;2.53;;;1.67;;
3547;SDS011;1788;49.400;11.092;2023-04-24T10:47:41;1.87;;;1.80;;
3547;SDS011;1788;49.400;11.092;2023-04-24T10:55:02;1.93;;;1.60;;
3547;SDS011;1788;49.400;11.092;2023-04-24T10:57:29;1.77;;;1.37;;
3547;SDS011;1788;49.400;11.092;2023-04-24T11:02:35;2.10;;;1.80;;
3547;SDS011;1788;49.400;11.092;2023-04-24T11:04:49;1.97;;;1.43;;
3547;SDS011;1788;49.400;11.092;2023-04-24T11:07:16;1.03;;;0.93;;
3547;SDS011;1788;49.400;11.092;2023-04-24T11:09:44;1.20;;;1.10;;
3547;SDS011;1788;49.400;11.092;2023-04-24T11:12:11;1.20;;;1.10;;
3547;SDS011;1788;49.400;11.092;2023-04-24T11:17:04;1.50;;;1.40;;
3547;SDS011;1788;49.400;11.092;2023-04-24T11:19:31;1.60;;;1.50;;
3547;SDS011;1788;49.400;11.092;2023-04-24T11:26:53;1.40;;;1.33;;
3547;SDS011;1788;49.400;11.092;2023-04-24T11:29:19;1.83;;;1.73;;
3547;SDS011;1788;49.400;11.092;2023-04-24T11:31:45;2.03;;;1.93;;
3547;SDS011;1788;49.400;11.092;2023-04-24T11:34:12;1.20;;;1.10;;
3547;SDS011;1788;49.400;11.092;2023-04-24T11:36:39;2.30;;;1.50;;
3547;SDS011;1788;49.400;11.092;2023-04-24T11:39:05;1.10;;;1.10;;
3547;SDS011;1788;49.400;11.092;2023-04-24T11:41:33;1.93;;;1.83;;
3547;SDS011;1788;49.400;11.092;2023-04-24T11:43:59;1.80;;;1.70;;
3547;SDS011;1788;49.400;11.092;2023-04-24T11:46:27;2.13;;;1.97;;
3547;SDS011;1788;49.400;11.092;2023-04-24T11:48:53;2.30;;;2.03;;
3547;SDS011;1788;49.400;11.092;2023-04-24T11:51:20;1.63;;;1.53;;
3547;SDS011;1788;49.400;11.092;2023-04-24T11:53:46;3.07;;;2.40;;
3547;SDS011;1788;49.400;11.092;2023-04-24T11:56:16;2.27;;;2.07;;
3547;SDS011;1788;49.400;11.092;2023-04-24T11:58:40;2.23;;;2.07;;
3547;SDS011;1788;49.400;11.092;2023-04-24T12:01:07;2.50;;;1.60;;
3547;SDS011;1788;49.400;11.092;2023-04-24T12:03:34;1.37;;;1.30;;
3547;SDS011;1788;49.400;11.092;2023-04-24T12:08:28;1.87;;;1.77;;
3547;SDS011;1788;49.400;11.092;2023-04-24T12:10:55;1.70;;;1.60;;
3547;SDS011;1788;49.400;11.092;2023-04-24T12:13:21;1.73;;;1.20;;
3547;SDS011;1788;49.400;11.092;2023-04-24T12:15:50;2.70;;;1.47;;
3547;SDS011;1788;49.400;11.092;2023-04-24T12:18:15;3.50;;;2.03;;
3547;SDS011;1788;49.400;11.092;2023-04-24T12:20:43;1.97;;;1.87;;
3547;SDS011;1788;49.400;11.092;2023-04-24T12:23:09;2.17;;;2.00;;
3547;SDS011;1788;49.400;11.092;2023-04-24T12:25:38;2.27;;;2.07;;
3547;SDS011;1788;49.400;11.092;2023-04-24T12:30:32;2.07;;;1.43;;
3547;SDS011;1788;49.400;11.092;2023-04-24T12:32:58;2.37;;;1.63;;
3547;SDS011;1788;49.400;11.092;2023-04-24T12:35:27;2.00;;;1.67;;
3547;SDS011;1788;49.400;11.092;2023-04-24T12:37:52;3.57;;;1.97;;
3547;SDS011;1788;49.400;11.092;2023-04-24T12:40:20;2.53;;;1.87;;
3547;SDS011;1788;49.400;11.092;2023-04-24T12:42:47;1.73;;;1.63;;
3547;SDS011;1788;49.400;11.092;2023-04-24T12:45:14;2.07;;;1.43;;
3547;SDS011;1788;49.400;11.092;2023-04-24T12:47:42;1.87;;;1.43;;
3547;SDS011;1788;49.400;11.092;2023-04-24T12:50:08;1.30;;;1.20;;
3547;SDS011;1788;49.400;11.092;2023-04-24T12:52:34;1.40;;;1.30;;
3547;SDS011;1788;49.400;11.092;2023-04-24T12:55:01;1.80;;;1.30;;
3547;SDS011;1788;49.400;11.092;2023-04-24T12:57:29;1.57;;;1.47;;
3547;SDS011;1788;49.400;11.092;2023-04-24T12:59:56;2.30;;;1.67;;
3547;SDS011;1788;49.400;11.092;2023-04-24T13:02:22;1.33;;;1.23;;
3547;SDS011;1788;49.400;11.092;2023-04-24T13:04:49;1.60;;;1.50;;
3547;SDS011;1788;49.400;11.092;2023-04-24T13:07:15;1.80;;;1.70;;
3547;SDS011;1788;49.400;11.092;2023-04-24T13:09:43;2.47;;;1.87;;
3547;SDS011;1788;49.400;11.092;2023-04-24T13:12:10;1.47;;;1.37;;
3547;SDS011;1788;49.400;11.092;2023-04-24T13:14:37;3.07;;;1.37;;
3547;SDS011;1788;49.400;11.092;2023-04-24T13:17:03;1.57;;;1.47;;
3547;SDS011;1788;49.400;11.092;2023-04-24T13:19:34;2.00;;;1.80;;
3547;SDS011;1788;49.400;11.092;2023-04-24T13:21:56;1.73;;;1.63;;
3547;SDS011;1788;49.400;11.092;2023-04-24T13:24:23;2.80;;;2.60;;
3547;SDS011;1788;49.400;11.092;2023-04-24T13:26:50;2.00;;;1.90;;
3547;SDS011;1788;49.400;11.092;2023-04-24T13:29:17;3.33;;;2.33;;
3547;SDS011;1788;49.400;11.092;2023-04-24T13:31:43;2.00;;;1.90;;
3547;SDS011;1788;49.400;11.092;2023-04-24T13:34:11;2.93;;;1.67;;
3547;SDS011;1788;49.400;11.092;2023-04-24T13:36:37;2.30;;;2.10;;
3547;SDS011;1788;49.400;11.092;2023-04-24T13:39:04;2.37;;;2.20;;
3547;SDS011;1788;49.400;11.092;2023-04-24T13:41:32;2.20;;;2.00;;
3547;SDS011;1788;49.400;11.092;2023-04-24T13:43:58;2.40;;;2.20;;
3547;SDS011;1788;49.400;11.092;2023-04-24T13:46:25;2.70;;;2.50;;
3547;SDS011;1788;49.400;11.092;2023-04-24T13:48:52;2.53;;;2.30;;
3547;SDS011;1788;49.400;11.092;2023-04-24T13:51:19;2.93;;;2.27;;
3547;SDS011;1788;49.400;11.092;2023-04-24T13:53:46;2.17;;;2.07;;
3547;SDS011;1788;49.400;11.092;2023-04-24T13:56:14;2.80;;;2.70;;
3547;SDS011;1788;49.400;11.092;2023-04-24T13:58:41;3.70;;;2.53;;
3547;SDS011;1788;49.400;11.092;2023-04-24T14:01:08;3.20;;;3.00;;
3547;SDS011;1788;49.400;11.092;2023-04-24T14:03:36;2.73;;;2.53;;
3547;SDS011;1788;49.400;11.092;2023-04-24T14:06:02;3.13;;;2.93;;
3547;SDS011;1788;49.400;11.092;2023-04-24T14:08:29;3.13;;;2.93;;
3547;SDS011;1788;49.400;11.092;2023-04-24T14:10:56;4.23;;;3.20;;
3547;SDS011;1788;49.400;11.092;2023-04-24T14:13:22;4.03;;;3.33;;
3547;SDS011;1788;49.400;11.092;2023-04-24T14:15:49;3.23;;;3.03;;
3547;SDS011;1788;49.400;11.092;2023-04-24T14:18:16;3.20;;;2.40;;
3547;SDS011;1788;49.400;11.092;2023-04-24T14:20:43;2.87;;;2.03;;
3547;SDS011;1788;49.400;11.092;2023-04-24T14:23:10;2.70;;;2.50;;
3547;SDS011;1788;49.400;11.092;2023-04-24T14:25:37;2.27;;;2.07;;
3547;SDS011;1788;49.400;11.092;2023-04-24T14:28:05;2.27;;;2.10;;
3547;SDS011;1788;49.400;11.092;2023-04-24T14:30:31;2.47;;;2.13;;
3547;SDS011;1788;49.400;11.092;2023-04-24T14:32:58;3.57;;;2.27;;
3547;SDS011;1788;49.400;11.092;2023-04-24T14:35:25;3.67;;;2.50;;
3547;SDS011;1788;49.400;11.092;2023-04-24T14:37:52;1.93;;;1.83;;
3547;SDS011;1788;49.400;11.092;2023-04-24T14:40:20;2.73;;;2.53;;
3547;SDS011;1788;49.400;11.092;2023-04-24T14:42:46;2.87;;;2.20;;
3547;SDS011;1788;49.400;11.092;2023-04-24T14:45:14;2.57;;;2.43;;
3547;SDS011;1788;49.400;11.092;2023-04-24T14:47:41;2.50;;;2.30;;
3547;SDS011;1788;49.400;11.092;2023-04-24T14:50:08;4.40;;;2.63;;
3547;SDS011;1788;49.400;11.092;2023-04-24T14:52:34;2.30;;;2.10;;
3547;SDS011;1788;49.400;11.092;2023-04-24T14:55:02;2.37;;;2.17;;
3547;SDS011;1788;49.400;11.092;2023-04-24T14:57:28;1.47;;;1.43;;
3547;SDS011;1788;49.400;11.092;2023-04-24T14:59:55;1.77;;;1.63;;
3547;SDS011;1788;49.400;11.092;2023-04-24T15:02:22;2.00;;;1.60;;
3547;SDS011;1788;49.400;11.092;2023-04-24T15:04:49;1.97;;;1.90;;
3547;SDS011;1788;49.400;11.092;2023-04-24T15:07:16;1.87;;;1.80;;
3547;SDS011;1788;49.400;11.092;2023-04-24T15:09:42;3.30;;;2.40;;
3547;SDS011;1788;49.400;11.092;2023-04-24T15:12:09;2.60;;;2.30;;
3547;SDS011;1788;49.400;11.092;2023-04-24T15:14:36;3.17;;;2.77;;
3547;SDS011;1788;49.400;11.092;2023-04-24T15:17:02;2.93;;;2.30;;
3547;SDS011;1788;49.400;11.092;2023-04-24T15:19:29;5.00;;;3.30;;
3547;SDS011;1788;49.400;11.092;2023-04-24T15:21:55;3.70;;;2.33;;
3547;SDS011;1788;49.400;11.092;2023-04-24T15:24:22;2.83;;;2.53;;
3547;SDS011;1788;49.400;11.092;2023-04-24T15:26:49;3.70;;;2.70;;
3547;SDS011;1788;49.400;11.092;2023-04-24T15:29:16;2.90;;;2.70;;
3547;SDS011;1788;49.400;11.092;2023-04-24T15:31:43;3.50;;;3.00;;
3547;SDS011;1788;49.400;11.092;2023-04-24T15:34:10;3.80;;;3.17;;
3547;SDS011;1788;49.400;11.092;2023-04-24T15:36:37;2.93;;;2.73;;
3547;SDS011;1788;49.400;11.092;2023-04-24T15:39:04;4.13;;;3.43;;
3547;SDS011;1788;49.400;11.092;2023-04-24T15:41:31;3.47;;;3.17;;